createdAt,value
2019-05-15T00:00:21.544Z,8.20
2019-05-15T00:02:50.067Z,8.30
2019-05-15T00:05:18.932Z,8.10
2019-05-15T00:07:48.412Z,8.10
2019-05-15T00:10:18.104Z,8.10
2019-05-15T00:12:48.636Z,8.10
2019-05-15T00:15:18.205Z,8.00
2019-05-15T00:17:48.504Z,8.00
2019-05-15T00:20:20.036Z,7.90
2019-05-15T00:22:48.433Z,7.90
2019-05-15T00:25:18.874Z,7.80
2019-05-15T00:27:49.157Z,7.80
2019-05-15T00:30:18.365Z,7.80
2019-05-15T00:32:48.730Z,7.70
2019-05-15T00:35:18.429Z,7.70
2019-05-15T00:37:49.259Z,7.60
2019-05-15T00:40:18.354Z,7.60
2019-05-15T00:42:48.808Z,7.60
2019-05-15T00:45:18.529Z,7.60
2019-05-15T00:47:48.658Z,7.50
2019-05-15T00:50:18.203Z,7.50
2019-05-15T00:52:48.455Z,7.40
2019-05-15T00:55:19.070Z,7.40
2019-05-15T00:57:48.537Z,7.30
2019-05-15T01:00:38.151Z,7.30
2019-05-15T01:03:08.708Z,7.20
2019-05-15T01:05:38.801Z,7.20
2019-05-15T01:08:08.225Z,7.20
2019-05-15T01:10:38.629Z,7.20
2019-05-15T01:13:08.464Z,7.20
2019-05-15T01:15:38.647Z,7.10
2019-05-15T01:18:09.258Z,7.10
2019-05-15T01:20:39.178Z,7.10
2019-05-15T01:23:08.821Z,7.00
2019-05-15T01:25:39.006Z,6.90
2019-05-15T01:28:09.519Z,6.90
2019-05-15T01:30:39.358Z,6.90
2019-05-15T01:33:08.746Z,6.90
2019-05-15T01:35:38.291Z,6.80
2019-05-15T01:38:08.086Z,6.70
2019-05-15T01:40:38.535Z,6.70
2019-05-15T01:43:09.141Z,6.70
2019-05-15T01:45:39.404Z,6.60
2019-05-15T01:48:08.223Z,6.60
2019-05-15T01:50:38.667Z,6.60
2019-05-15T01:53:08.287Z,6.60
2019-05-15T01:55:39.627Z,6.50
2019-05-15T01:58:09.169Z,6.50
2019-05-15T02:00:39.176Z,6.50
2019-05-15T02:03:09.785Z,6.50
2019-05-15T02:05:39.129Z,6.50
2019-05-15T02:08:08.325Z,6.40
2019-05-15T02:10:39.108Z,6.40
2019-05-15T02:13:08.590Z,6.30
2019-05-15T02:15:39.497Z,6.30
2019-05-15T02:18:08.441Z,6.30
2019-05-15T02:20:38.876Z,6.30
2019-05-15T02:23:11.550Z,6.30
2019-05-15T02:25:38.771Z,6.30
2019-05-15T02:28:09.343Z,6.30
2019-05-15T02:30:40.143Z,6.20
2019-05-15T02:33:10.667Z,6.20
2019-05-15T02:35:39.157Z,6.20
2019-05-15T02:38:10.304Z,6.20
2019-05-15T02:40:40.414Z,6.10
2019-05-15T02:43:10.069Z,6.00
2019-05-15T02:45:41.940Z,6.00
2019-05-15T02:50:50.140Z,6.00
2019-05-15T02:53:19.226Z,6.00
2019-05-15T02:55:49.479Z,5.90
2019-05-15T02:58:21.445Z,5.90
2019-05-15T03:00:53.136Z,5.80
2019-05-15T03:03:20.639Z,5.70
2019-05-15T03:05:49.999Z,5.70
2019-05-15T03:08:19.513Z,5.70
2019-05-15T03:10:49.803Z,5.70
2019-05-15T03:13:19.081Z,5.70
2019-05-15T03:15:48.900Z,5.70
2019-05-15T03:18:19.476Z,5.70
2019-05-15T03:20:50.098Z,5.70
2019-05-15T03:23:19.802Z,5.70
2019-05-15T03:25:49.165Z,5.60
2019-05-15T03:28:19.138Z,5.70
2019-05-15T03:31:22.521Z,5.60
2019-05-15T03:33:27.275Z,5.60
2019-05-15T03:35:53.674Z,5.60
2019-05-15T03:38:19.359Z,5.50
2019-05-15T03:40:49.777Z,5.50
2019-05-15T03:43:18.593Z,5.50
2019-05-15T03:45:49.327Z,5.50
2019-05-15T03:48:19.655Z,5.40
2019-05-15T03:50:48.932Z,5.40
2019-05-15T03:53:19.270Z,5.40
2019-05-15T03:55:48.967Z,5.50
2019-05-15T03:58:21.592Z,5.40
2019-05-15T04:00:49.830Z,5.40
2019-05-15T04:03:20.167Z,5.40
2019-05-15T04:05:49.467Z,5.40
2019-05-15T04:08:19.434Z,5.40
2019-05-15T04:10:48.939Z,5.40
2019-05-15T04:13:19.545Z,5.30
2019-05-15T04:15:50.194Z,5.30
2019-05-15T04:18:19.904Z,5.40
2019-05-15T04:20:49.355Z,5.30
2019-05-15T04:23:22.629Z,5.40
2019-05-15T04:25:53.223Z,5.40
2019-05-15T04:28:22.053Z,5.40
2019-05-15T04:30:51.115Z,5.40
2019-05-15T04:33:20.021Z,5.40
2019-05-15T04:35:49.650Z,5.40
2019-05-15T04:38:19.503Z,5.40
2019-05-15T04:40:50.024Z,5.40
2019-05-15T04:43:19.400Z,5.40
2019-05-15T04:45:49.748Z,5.40
2019-05-15T04:48:19.994Z,5.50
2019-05-15T04:50:49.735Z,5.50
2019-05-15T04:53:19.253Z,5.50
2019-05-15T04:55:49.197Z,5.50
2019-05-15T04:58:20.754Z,5.60
2019-05-15T05:00:50.347Z,5.60
2019-05-15T05:03:20.063Z,5.60
2019-05-15T05:05:50.390Z,5.60
2019-05-15T05:08:20.383Z,5.70
2019-05-15T05:10:49.711Z,5.70
2019-05-15T05:13:19.869Z,5.80
2019-05-15T05:15:49.902Z,5.80
2019-05-15T05:18:19.442Z,5.90
2019-05-15T05:20:48.685Z,6.00
2019-05-15T05:23:19.194Z,6.00
2019-05-15T05:25:49.077Z,6.10
2019-05-15T05:28:18.449Z,6.20
2019-05-15T05:30:48.204Z,6.20
2019-05-15T05:33:18.415Z,6.20
2019-05-15T05:35:48.587Z,6.30
2019-05-15T05:38:19.095Z,6.40
2019-05-15T05:40:49.799Z,6.40
2019-05-15T05:43:18.915Z,6.50
2019-05-15T05:45:49.277Z,6.50
2019-05-15T05:48:19.013Z,6.60
2019-05-15T05:50:49.561Z,6.60
2019-05-15T05:53:20.854Z,6.70
2019-05-15T05:55:49.947Z,6.70
2019-05-15T05:58:19.647Z,6.80
2019-05-15T06:00:49.278Z,6.80
2019-05-15T06:03:19.674Z,6.90
2019-05-15T06:05:49.554Z,6.90
2019-05-15T06:08:19.490Z,7.00
2019-05-15T06:10:49.495Z,7.10
2019-05-15T06:13:19.073Z,7.10
2019-05-15T06:15:48.787Z,7.10
2019-05-15T06:18:19.523Z,7.20
2019-05-15T06:20:49.390Z,7.30
2019-05-15T06:23:23.895Z,7.30
2019-05-15T06:25:49.583Z,7.40
2019-05-15T06:28:19.548Z,7.50
2019-05-15T06:30:48.926Z,7.60
2019-05-15T06:33:18.807Z,7.60
2019-05-15T06:35:48.849Z,7.70
2019-05-15T06:38:19.274Z,7.80
2019-05-15T06:40:49.562Z,7.90
2019-05-15T06:43:19.121Z,7.90
2019-05-15T06:45:48.829Z,8.00
2019-05-15T06:48:18.354Z,8.10
2019-05-15T06:50:49.016Z,8.10
2019-05-15T06:53:19.106Z,8.10
2019-05-15T06:55:48.660Z,8.20
2019-05-15T06:58:19.001Z,8.30
2019-05-15T07:00:49.139Z,8.30
2019-05-15T07:03:24.833Z,8.40
2019-05-15T07:05:50.852Z,8.40
2019-05-15T07:08:18.965Z,8.40
2019-05-15T07:10:48.588Z,8.50
2019-05-15T07:13:18.281Z,8.60
2019-05-15T07:15:49.577Z,8.60
2019-05-15T07:18:19.854Z,8.70
2019-05-15T07:20:48.954Z,8.80
2019-05-15T07:23:18.704Z,8.80
2019-05-15T07:25:49.895Z,8.90
2019-05-15T07:28:18.270Z,8.90
2019-05-15T07:30:49.455Z,9.00
2019-05-15T07:33:28.082Z,9.10
2019-05-15T07:35:49.201Z,9.10
2019-05-15T07:38:19.052Z,9.20
2019-05-15T07:40:56.832Z,9.20
2019-05-15T07:43:18.402Z,9.30
2019-05-15T07:45:53.646Z,9.30
2019-05-15T07:48:18.723Z,9.40
2019-05-15T07:50:49.780Z,9.40
2019-05-15T07:53:19.639Z,9.40
2019-05-15T07:55:50.290Z,9.40
2019-05-15T07:58:21.468Z,9.50
2019-05-15T08:00:49.338Z,9.50
2019-05-15T08:03:18.553Z,9.60
2019-05-15T08:05:56.082Z,9.60
2019-05-15T08:08:18.470Z,9.70
2019-05-15T08:10:49.002Z,9.70
2019-05-15T08:13:18.495Z,9.80
2019-05-15T08:15:48.765Z,9.80
2019-05-15T08:18:18.288Z,9.90
2019-05-15T08:20:49.111Z,10.00
2019-05-15T08:23:19.170Z,10.00
2019-05-15T08:25:48.565Z,10.10
2019-05-15T08:28:19.143Z,10.20
2019-05-15T08:30:49.365Z,10.30
2019-05-15T08:33:18.725Z,10.30
2019-05-15T08:35:51.416Z,10.40
2019-05-15T08:38:18.355Z,10.50
2019-05-15T08:40:48.969Z,10.60
2019-05-15T08:43:18.398Z,10.50
2019-05-15T08:45:49.719Z,10.60
2019-05-15T08:48:18.504Z,10.70
2019-05-15T08:50:48.834Z,10.70
2019-05-15T08:53:19.268Z,10.80
2019-05-15T08:55:48.623Z,10.80
2019-05-15T08:58:20.337Z,10.90
2019-05-15T09:00:51.799Z,10.90
2019-05-15T09:03:18.397Z,11.00
2019-05-15T09:05:48.543Z,11.10
2019-05-15T09:08:19.439Z,11.10
2019-05-15T09:10:49.870Z,11.20
2019-05-15T09:13:18.822Z,11.20
2019-05-15T09:15:48.735Z,11.20
2019-05-15T09:18:19.890Z,11.30
2019-05-15T09:20:49.239Z,11.30
2019-05-15T09:23:19.364Z,11.40
2019-05-15T09:25:49.358Z,11.40
2019-05-15T09:28:19.186Z,11.50
2019-05-15T09:30:48.804Z,11.50
2019-05-15T09:33:20.100Z,11.60
2019-05-15T09:35:49.039Z,11.80
2019-05-15T09:38:18.664Z,11.90
2019-05-15T09:40:50.262Z,12.00
2019-05-15T09:43:18.281Z,12.20
2019-05-15T09:45:49.368Z,12.40
2019-05-15T09:48:19.588Z,12.60
2019-05-15T09:50:49.232Z,12.90
2019-05-15T09:53:19.125Z,13.30
2019-05-15T09:55:49.303Z,13.60
2019-05-15T09:58:20.158Z,13.90
2019-05-15T10:00:51.874Z,14.20
2019-05-15T10:03:20.000Z,14.70
2019-05-15T10:05:48.561Z,15.00
2019-05-15T10:08:20.981Z,15.40
2019-05-15T10:10:48.772Z,15.50
2019-05-15T10:13:18.583Z,15.70
2019-05-15T10:15:50.839Z,16.00
2019-05-15T10:18:19.051Z,16.30
2019-05-15T10:20:48.212Z,16.30
2019-05-15T10:23:19.489Z,16.50
2019-05-15T10:25:48.451Z,16.70
2019-05-15T10:28:19.302Z,17.10
2019-05-15T10:30:49.718Z,17.10
2019-05-15T10:33:19.646Z,17.40
2019-05-15T10:35:49.262Z,17.40
2019-05-15T10:38:19.261Z,17.60
2019-05-15T10:40:59.841Z,17.50
2019-05-15T10:43:20.564Z,17.70
2019-05-15T10:45:50.061Z,17.50
2019-05-15T10:48:19.281Z,17.60
2019-05-15T10:50:48.086Z,17.70
2019-05-15T10:53:18.711Z,18.00
2019-05-15T10:55:49.494Z,18.10
2019-05-15T10:58:21.742Z,18.30
2019-05-15T11:00:49.324Z,18.10
2019-05-15T11:03:20.069Z,18.20
2019-05-15T11:05:49.240Z,18.50
2019-05-15T11:08:18.818Z,18.20
2019-05-15T11:10:49.414Z,18.40
2019-05-15T11:13:18.788Z,18.90
2019-05-15T11:15:49.106Z,19.10
2019-05-15T11:18:18.316Z,19.10
2019-05-15T11:20:48.794Z,19.20
2019-05-15T11:23:19.802Z,19.60
2019-05-15T11:25:48.713Z,19.90
2019-05-15T11:28:17.661Z,20.10
2019-05-15T11:30:48.899Z,20.30
2019-05-15T11:33:18.812Z,20.30
2019-05-15T11:35:57.991Z,20.50
2019-05-15T11:38:19.221Z,20.50
2019-05-15T11:40:47.119Z,20.60
2019-05-15T11:43:15.724Z,21.00
2019-05-15T11:45:44.344Z,21.10
2019-05-15T11:48:12.873Z,21.10
2019-05-15T11:50:41.424Z,21.00
2019-05-15T11:53:10.029Z,21.20
2019-05-15T11:55:38.831Z,21.70
2019-05-15T11:58:09.312Z,21.90
2019-05-15T12:00:38.371Z,22.80
2019-05-15T12:03:08.925Z,22.90
2019-05-15T12:05:38.591Z,23.10
2019-05-15T12:08:08.709Z,23.30
2019-05-15T12:10:38.912Z,23.70
2019-05-15T12:13:09.793Z,24.40
2019-05-15T12:15:38.771Z,24.40
2019-05-15T12:18:08.816Z,24.40
2019-05-15T12:20:38.906Z,25.10
2019-05-15T12:23:09.139Z,25.20
2019-05-15T12:25:39.471Z,25.30
2019-05-15T12:28:09.433Z,25.40
2019-05-15T12:30:40.353Z,25.60
2019-05-15T12:33:09.296Z,25.40
2019-05-15T12:35:39.592Z,24.50
2019-05-15T12:38:10.215Z,24.60
2019-05-15T13:00:41.369Z,26.60
2019-05-15T13:03:09.923Z,26.30
2019-05-15T13:05:39.295Z,26.20
2019-05-15T13:08:08.512Z,26.20
2019-05-15T13:10:38.484Z,26.70
2019-05-15T13:13:09.451Z,26.70
2019-05-15T13:15:41.140Z,26.20
2019-05-15T13:18:13.907Z,25.80
2019-05-15T13:20:38.627Z,24.90
2019-05-15T13:23:08.588Z,24.70
2019-05-15T13:25:39.580Z,25.20
2019-05-15T13:28:08.913Z,26.00
2019-05-15T13:30:41.380Z,26.10
2019-05-15T13:33:09.959Z,26.80
2019-05-15T13:35:38.971Z,26.50
2019-05-15T13:38:09.900Z,25.90
2019-05-15T13:40:41.938Z,24.80
2019-05-15T13:43:08.564Z,23.60
2019-05-15T13:45:38.662Z,23.00
2019-05-15T13:48:08.862Z,22.60
2019-05-15T13:50:40.306Z,22.30
2019-05-15T13:53:10.816Z,22.00
2019-05-15T13:55:42.581Z,21.70
2019-05-15T13:58:09.061Z,21.20
2019-05-15T14:00:38.890Z,20.60
2019-05-15T14:03:09.227Z,20.40
2019-05-15T14:05:38.422Z,20.30
2019-05-15T14:08:07.941Z,20.20
2019-05-15T14:10:38.650Z,20.00
2019-05-15T14:13:06.908Z,19.70
2019-05-15T14:15:38.026Z,19.50
2019-05-15T14:18:05.705Z,19.30
2019-05-15T14:20:34.156Z,18.90
2019-05-15T14:23:03.017Z,18.40
2019-05-15T14:25:31.611Z,18.30
2019-05-15T14:28:00.179Z,18.40
2019-05-15T14:30:29.255Z,18.50
2019-05-15T14:32:59.709Z,18.40
2019-05-15T14:35:28.347Z,18.40
2019-05-15T14:38:03.672Z,18.50
2019-05-15T14:40:27.389Z,18.40
2019-05-15T14:42:55.952Z,18.30
2019-05-15T14:45:24.483Z,18.30
2019-05-15T14:47:53.040Z,18.20
2019-05-15T14:50:21.640Z,18.10
2019-05-15T14:52:50.499Z,18.00
2019-05-15T14:55:19.036Z,17.80
2019-05-15T14:57:48.804Z,17.60
2019-05-15T15:00:20.130Z,17.70
2019-05-15T15:02:49.399Z,17.80
2019-05-15T15:05:21.777Z,17.70
2019-05-15T15:07:49.219Z,17.60
2019-05-15T15:10:20.154Z,17.50
2019-05-15T15:12:50.021Z,17.30
2019-05-15T15:15:18.481Z,17.20
2019-05-15T15:17:49.338Z,16.90
2019-05-15T15:20:17.915Z,16.80
2019-05-15T15:22:48.583Z,16.60
2019-05-15T15:25:16.855Z,16.50
2019-05-15T15:27:47.833Z,16.40
2019-05-15T15:30:18.738Z,16.40
2019-05-15T15:32:49.002Z,16.10
2019-05-15T15:35:16.884Z,15.90
2019-05-15T15:37:45.417Z,15.90
2019-05-15T15:40:14.307Z,15.60
2019-05-15T15:42:42.843Z,15.40
2019-05-15T15:45:12.539Z,15.40
2019-05-15T15:47:41.073Z,15.40
2019-05-15T15:50:11.283Z,15.30
2019-05-15T15:52:39.792Z,15.20
2019-05-15T15:55:09.291Z,15.00
2019-05-15T15:57:39.636Z,15.00
2019-05-15T16:00:09.955Z,14.70
2019-05-15T16:02:41.132Z,14.60
2019-05-15T16:05:09.677Z,14.60
2019-05-15T16:07:38.780Z,14.50
2019-05-15T16:10:08.494Z,14.40
2019-05-15T16:12:38.708Z,14.50
2019-05-15T16:15:09.041Z,14.40
2019-05-15T16:17:38.599Z,14.20
2019-05-15T16:20:09.111Z,14.00
2019-05-15T16:22:38.295Z,13.90
2019-05-15T16:25:10.739Z,13.80
2019-05-15T16:27:39.272Z,13.80
2019-05-15T16:30:08.773Z,13.80
2019-05-15T16:32:38.924Z,13.90
2019-05-15T16:35:10.083Z,13.90
2019-05-15T16:37:39.202Z,13.90
2019-05-15T16:40:09.241Z,13.80
2019-05-15T16:42:38.436Z,13.70
2019-05-15T16:45:11.049Z,13.70
2019-05-15T16:47:39.840Z,13.60
2019-05-15T16:50:09.654Z,13.50
2019-05-15T16:52:38.974Z,13.50
2019-05-15T16:55:09.466Z,13.40
2019-05-15T16:57:38.743Z,13.20
2019-05-15T17:00:09.627Z,13.20
2019-05-15T17:02:39.915Z,13.20
2019-05-15T17:05:09.800Z,13.30
2019-05-15T17:07:39.046Z,13.30
2019-05-15T17:10:08.797Z,13.30
2019-05-15T17:12:38.769Z,13.20
2019-05-15T17:15:09.522Z,13.10
2019-05-15T17:17:39.624Z,13.10
2019-05-15T17:20:09.770Z,13.10
2019-05-15T17:22:38.851Z,13.10
2019-05-15T17:25:09.166Z,13.10
2019-05-15T17:27:38.010Z,13.00
2019-05-15T17:30:09.301Z,13.00
2019-05-15T17:32:39.519Z,13.00
2019-05-15T17:35:09.770Z,12.90
2019-05-15T17:37:39.308Z,12.90
2019-05-15T17:40:09.486Z,12.80
2019-05-15T17:42:38.868Z,12.80
2019-05-15T17:45:09.208Z,12.70
2019-05-15T17:47:38.802Z,12.60
2019-05-15T17:50:08.945Z,12.60
2019-05-15T17:52:38.679Z,12.50
2019-05-15T17:55:08.173Z,12.40
2019-05-15T17:57:38.641Z,12.40
2019-05-15T18:00:12.683Z,12.30
2019-05-15T18:02:41.517Z,12.30
2019-05-15T18:05:10.812Z,12.30
2019-05-15T18:07:39.352Z,12.30
2019-05-15T18:10:08.743Z,12.30
2019-05-15T18:12:38.847Z,12.30
2019-05-15T18:15:09.410Z,12.30
2019-05-15T18:17:39.297Z,12.20
2019-05-15T18:20:10.513Z,12.30
2019-05-15T18:22:39.165Z,12.20
2019-05-15T18:25:09.020Z,12.20
2019-05-15T18:27:38.825Z,12.20
2019-05-15T18:30:09.247Z,12.20
2019-05-15T18:32:39.146Z,12.20
2019-05-15T18:35:08.625Z,12.20
2019-05-15T18:37:39.410Z,12.20
2019-05-15T18:40:09.876Z,12.10
2019-05-15T18:42:39.494Z,12.10
2019-05-15T18:45:09.218Z,12.10
2019-05-15T18:47:39.049Z,12.10
2019-05-15T18:50:12.584Z,12.00
2019-05-15T18:52:38.735Z,12.00
2019-05-15T18:55:08.121Z,12.00
2019-05-15T18:57:38.536Z,12.00
2019-05-15T19:00:09.165Z,12.00
2019-05-15T19:02:39.179Z,12.10
2019-05-15T19:05:08.705Z,12.00
2019-05-15T19:07:38.439Z,12.00
2019-05-15T19:10:09.075Z,12.00
2019-05-15T19:12:38.073Z,12.00
2019-05-15T19:15:09.989Z,12.00
2019-05-15T19:17:39.097Z,12.00
2019-05-15T19:20:08.757Z,12.00
2019-05-15T19:22:40.613Z,12.00
2019-05-15T19:25:09.052Z,12.00
2019-05-15T19:27:38.991Z,12.00
2019-05-15T19:30:08.495Z,12.00
2019-05-15T19:32:38.819Z,12.00
2019-05-15T19:35:08.732Z,12.00
2019-05-15T19:37:38.433Z,12.00
2019-05-15T19:40:08.469Z,12.00
2019-05-15T19:42:38.440Z,12.00
2019-05-15T19:45:08.967Z,12.00
2019-05-15T19:47:38.761Z,12.00
2019-05-15T19:50:09.088Z,12.00
2019-05-15T19:52:37.708Z,12.00
2019-05-15T19:55:08.747Z,11.90
2019-05-15T19:57:38.747Z,11.90
2019-05-15T20:00:11.011Z,11.90
2019-05-15T20:02:39.569Z,11.90
2019-05-15T20:05:09.107Z,11.90
2019-05-15T20:07:39.084Z,11.90
2019-05-15T20:10:08.898Z,11.90
2019-05-15T20:12:38.945Z,11.90
2019-05-15T20:15:09.174Z,11.90
2019-05-15T20:17:38.706Z,11.90
2019-05-15T20:20:08.968Z,11.90
2019-05-15T20:22:40.269Z,11.80
2019-05-15T20:25:08.504Z,11.80
2019-05-15T20:27:39.225Z,11.80
2019-05-15T20:30:08.792Z,11.80
2019-05-15T20:32:38.599Z,11.70
2019-05-15T20:35:09.008Z,11.80
2019-05-15T20:37:42.428Z,11.70
2019-05-15T20:40:09.929Z,11.70
2019-05-15T20:42:38.711Z,11.70
2019-05-15T20:45:12.348Z,11.70
2019-05-15T20:47:40.613Z,11.70
2019-05-15T20:50:09.890Z,11.70
2019-05-15T20:52:39.752Z,11.70
2019-05-15T20:55:08.781Z,11.70
2019-05-15T20:57:40.180Z,11.70
2019-05-15T21:00:09.916Z,11.70
2019-05-15T21:02:38.731Z,11.70
2019-05-15T21:05:08.705Z,11.60
2019-05-15T21:07:39.962Z,11.60
2019-05-15T21:10:09.539Z,11.60
2019-05-15T21:12:40.980Z,11.60
2019-05-15T21:15:09.608Z,11.60
2019-05-15T21:17:39.447Z,11.50
2019-05-15T21:20:10.465Z,11.50
2019-05-15T21:22:40.311Z,11.50
2019-05-15T21:25:10.903Z,11.50
2019-05-15T21:27:42.373Z,11.50
2019-05-15T21:30:11.174Z,11.50
2019-05-15T21:32:39.695Z,11.50
2019-05-15T21:35:09.401Z,11.50
2019-05-15T21:37:38.955Z,11.50
2019-05-15T21:40:09.068Z,11.50
2019-05-15T21:42:39.146Z,11.40
2019-05-15T21:45:14.089Z,11.40
2019-05-15T21:47:41.661Z,11.40
2019-05-15T21:50:11.787Z,11.40
2019-05-15T21:52:40.492Z,11.40
2019-05-15T21:55:09.750Z,11.40
2019-05-15T21:57:40.312Z,11.30
2019-05-15T22:00:14.387Z,11.40
2019-05-15T22:02:43.116Z,11.40
2019-05-15T22:05:11.794Z,11.40
2019-05-15T22:07:40.771Z,11.40
2019-05-15T22:10:10.984Z,11.40
2019-05-15T22:12:39.695Z,11.40
2019-05-15T22:15:09.185Z,11.40
2019-05-15T22:17:38.929Z,11.40
2019-05-15T22:20:08.921Z,11.30
2019-05-15T22:22:37.814Z,11.40
2019-05-15T22:25:10.879Z,11.30
2019-05-15T22:27:38.335Z,11.30
2019-05-15T22:30:08.629Z,11.30
2019-05-15T22:32:41.218Z,11.40
2019-05-15T22:35:13.303Z,11.30
2019-05-15T22:37:41.445Z,11.30
2019-05-15T22:40:09.394Z,11.30
2019-05-15T22:42:39.068Z,11.30
2019-05-15T22:45:11.615Z,11.20
2019-05-15T22:47:39.135Z,11.20
2019-05-15T22:50:08.548Z,11.20
2019-05-15T22:52:38.861Z,11.20
2019-05-15T22:55:08.257Z,11.20
2019-05-15T22:57:38.900Z,11.20
2019-05-15T23:00:08.780Z,11.20
2019-05-15T23:02:37.781Z,11.20
2019-05-15T23:05:23.483Z,11.10
2019-05-15T23:07:38.996Z,11.10
2019-05-15T23:10:09.151Z,11.20
2019-05-15T23:12:38.254Z,11.10
2019-05-15T23:15:08.743Z,11.10
2019-05-15T23:17:38.382Z,11.10
2019-05-15T23:20:08.852Z,11.10
2019-05-15T23:22:38.607Z,11.10
2019-05-15T23:25:07.832Z,11.10
2019-05-15T23:27:38.224Z,11.10
2019-05-15T23:30:08.938Z,11.10
2019-05-15T23:32:39.120Z,11.10
2019-05-15T23:35:08.695Z,11.10
2019-05-15T23:37:39.275Z,11.10
2019-05-15T23:40:09.029Z,11.10
2019-05-15T23:42:39.021Z,11.10
2019-05-15T23:45:08.581Z,11.10
2019-05-15T23:47:38.464Z,11.00
2019-05-15T23:50:07.711Z,11.00
2019-05-15T23:52:38.275Z,11.00
2019-05-15T23:55:08.779Z,11.00
2019-05-15T23:57:39.229Z,11.00
